Time;durP1;ratioP1;P1;durP2;ratioP2;P2;SDS_P1;SDS_P2;PMS_P1;PMS_P2;Temp;Humidity;BMP_temperature;BMP_pressure;BME280_temperature;BME280_humidity;BME280_pressure;Samples;Min_cycle;Max_cycle;Signal;HPM_P1;HPM_P2
2022/01/29 00:01:51;;;;;;;9.43;4.57;;;;;;;20.60;32.46;102961.06;7310764;19;129290;-70
2022/01/29 00:04:18;;;;;;;7.38;4.57;;;;;;;20.56;32.47;102954.19;7309814;19;131284;-68
2022/01/29 00:06:45;;;;;;;6.18;3.63;;;;;;;20.56;32.48;102950.56;7312685;19;131084;-70
2022/01/29 00:09:15;;;;;;;6.75;4.15;;;;;;;20.52;32.10;102933.44;7309753;19;129159;-70
2022/01/29 00:11:42;;;;;;;7.82;4.10;;;;;;;20.50;32.49;102935.59;7312292;19;129577;-69
2022/01/29 00:14:09;;;;;;;6.45;4.00;;;;;;;20.50;32.48;102930.03;7309040;19;131921;-69
2022/01/29 00:16:37;;;;;;;6.85;4.00;;;;;;;20.47;32.15;102924.88;7314165;19;131081;-70
2022/01/29 00:19:05;;;;;;;7.40;4.13;;;;;;;20.46;32.52;102923.16;7307657;19;129636;-70
2022/01/29 00:21:31;;;;;;;7.40;3.85;;;;;;;20.44;32.34;102922.50;7313029;19;129587;-69
2022/01/29 00:23:58;;;;;;;7.20;4.15;;;;;;;20.41;32.31;102921.00;7308944;19;130877;-70
2022/01/29 00:26:27;;;;;;;8.63;3.75;;;;;;;20.40;32.15;102916.50;7310849;19;131009;-70
2022/01/29 00:28:55;;;;;;;6.28;4.03;;;;;;;20.38;32.21;102899.19;7311277;19;129024;-70
2022/01/29 00:31:22;;;;;;;6.50;3.80;;;;;;;20.36;32.54;102897.69;7309987;19;129039;-70
2022/01/29 00:33:48;;;;;;;7.80;4.10;;;;;;;20.36;32.50;102897.69;7311248;19;132595;-70
2022/01/29 00:36:15;;;;;;;6.95;3.55;;;;;;;20.33;32.31;102904.53;7308600;19;131703;-70
2022/01/29 00:38:42;;;;;;;5.22;3.70;;;;;;;20.32;32.29;102902.81;7312016;19;129086;-70
2022/01/29 00:41:09;;;;;;;8.85;3.90;;;;;;;20.31;32.40;102903.88;7307742;19;128877;-66
2022/01/29 00:43:35;;;;;;;6.28;3.72;;;;;;;20.29;32.41;102898.53;7311730;19;131197;-70
2022/01/29 00:46:02;;;;;;;7.53;3.45;;;;;;;20.29;32.31;102894.91;7308593;19;132010;-70
2022/01/29 00:48:29;;;;;;;7.10;4.60;;;;;;;20.27;32.13;102899.81;7310911;19;128855;-69
2022/01/29 00:50:57;;;;;;;5.60;3.75;;;;;;;20.23;32.11;102899.38;7309839;19;129593;-70
2022/01/29 00:53:23;;;;;;;6.10;3.75;;;;;;;20.23;32.14;102888.25;7314758;19;131189;-69
2022/01/29 00:55:50;;;;;;;6.25;4.00;;;;;;;20.22;32.48;102886.53;7318200;19;131409;-70
2022/01/29 00:58:17;;;;;;;5.03;3.70;;;;;;;20.19;32.54;102886.94;7315012;19;129362;-70
2022/01/29 01:00:44;;;;;;;7.57;3.75;;;;;;;20.17;32.11;102886.31;7318742;19;130611;-70
2022/01/29 01:03:11;;;;;;;5.43;3.60;;;;;;;20.14;32.32;102887.56;7312909;19;132135;-69
2022/01/29 01:05:38;;;;;;;7.00;3.97;;;;;;;20.13;32.59;102871.97;7317052;19;131233;-70
2022/01/29 01:08:05;;;;;;;4.70;3.80;;;;;;;20.12;32.63;102869.41;7313518;19;132698;-70
2022/01/29 01:10:31;;;;;;;6.82;3.65;;;;;;;20.11;32.45;102856.59;7317154;19;129086;-70
2022/01/29 01:12:58;;;;;;;6.50;3.67;;;;;;;20.08;32.54;102845.88;7316004;19;131270;-71
2022/01/29 01:15:25;;;;;;;6.47;3.53;;;;;;;20.07;32.60;102855.28;7316014;19;131112;-70
2022/01/29 01:17:52;;;;;;;6.80;3.50;;;;;;;20.05;32.68;102843.53;7317217;19;129463;-70
2022/01/29 01:20:18;;;;;;;5.53;3.95;;;;;;;20.04;32.67;102845.44;7314594;19;128920;-71
2022/01/29 01:22:45;;;;;;;7.13;3.72;;;;;;;20.03;32.28;102842.88;7318831;19;131269;-70
2022/01/29 01:25:12;;;;;;;6.82;3.50;;;;;;;20.02;32.67;102835.63;7314517;19;133214;-69
2022/01/29 01:27:38;;;;;;;6.00;3.70;;;;;;;20.01;32.24;102822.78;7318295;19;128898;-70
2022/01/29 01:30:06;;;;;;;7.97;3.53;;;;;;;20.00;32.29;102827.47;7313119;19;129524;-70
2022/01/29 01:32:33;;;;;;;5.38;3.65;;;;;;;19.99;32.44;102826.63;7315404;19;131259;-70
2022/01/29 01:35:10;;;;;;;9.25;3.72;;;;;;;19.97;32.53;102825.94;7314541;19;133497;-70
2022/01/29 01:37:45;;;;;;;5.45;3.65;;;;;;;19.97;32.45;102816.78;7313583;19;129864;-70
2022/01/29 01:40:13;;;;;;;4.63;3.53;;;;;;;19.94;32.39;102823.56;7317521;19;130148;-70
2022/01/29 01:42:39;;;;;;;5.82;3.88;;;;;;;19.93;32.41;102819.13;7314713;19;131274;-69
2022/01/29 01:45:07;;;;;;;5.68;3.65;;;;;;;19.91;32.47;102812.91;7314946;19;131136;-69
2022/01/29 01:47:33;;;;;;;6.72;3.53;;;;;;;19.90;32.20;102818.66;7311913;19;131890;-70
2022/01/29 01:50:00;;;;;;;6.63;3.78;;;;;;;19.88;32.65;102813.31;7317781;19;128783;-69
2022/01/29 01:52:27;;;;;;;5.68;3.65;;;;;;;19.87;32.57;102803.28;7314777;19;131253;-70
2022/01/29 01:54:54;;;;;;;6.57;3.45;;;;;;;19.86;32.16;102804.34;7314428;19;131085;-69
2022/01/29 01:57:21;;;;;;;5.47;3.60;;;;;;;19.84;32.32;102807.34;7314271;19;129135;-70
2022/01/29 01:59:47;;;;;;;5.63;3.50;;;;;;;19.84;32.54;102800.91;7313820;19;128914;-69
2022/01/29 02:02:14;;;;;;;6.22;3.70;;;;;;;19.83;32.40;102793.63;7316105;19;131320;-70
2022/01/29 02:04:41;;;;;;;6.97;3.40;;;;;;;19.81;32.26;102785.53;7308124;19;131881;-68
2022/01/29 02:07:08;;;;;;;5.57;3.58;;;;;;;19.80;32.78;102783.81;7317527;19;130947;-70
2022/01/29 02:09:38;;;;;;;5.68;3.80;;;;;;;19.79;32.69;102784.88;7312663;19;128995;-69
2022/01/29 02:12:05;;;;;;;6.03;3.50;;;;;;;19.78;32.73;102776.75;7316739;19;131970;-70
2022/01/29 02:14:33;;;;;;;5.43;3.53;;;;;;;19.76;32.61;102770.56;7310372;19;131704;-70
2022/01/29 02:17:02;;;;;;;4.75;3.20;;;;;;;19.76;32.36;102762.22;7315732;19;131266;-70
2022/01/29 02:19:28;;;;;;;6.15;3.25;;;;;;;19.74;32.57;102751.34;7312953;19;128973;-70
2022/01/29 02:21:56;;;;;;;4.20;3.20;;;;;;;19.74;32.57;102740.22;7313750;19;131120;-69
2022/01/29 02:24:24;;;;;;;4.43;3.10;;;;;;;19.73;32.86;102732.97;7313993;19;132133;-70
2022/01/29 02:26:51;;;;;;;6.53;3.53;;;;;;;19.71;32.41;102737.00;7313189;19;129062;-69
2022/01/29 02:29:19;;;;;;;4.35;3.05;;;;;;;19.68;32.41;102728.03;7315649;19;129079;-70
2022/01/29 02:31:54;;;;;;;6.95;3.20;;;;;;;19.68;32.42;102725.25;7308700;19;131958;-69
2022/01/29 02:34:21;;;;;;;5.68;3.50;;;;;;;19.67;32.72;102726.31;7316652;19;131037;-70
2022/01/29 02:36:49;;;;;;;4.47;3.15;;;;;;;19.65;32.71;102722.91;7312573;19;128938;-70
2022/01/29 02:39:18;;;;;;;4.93;3.25;;;;;;;19.65;32.49;102725.69;7313659;19;128843;-69
2022/01/29 02:41:45;;;;;;;4.72;2.88;;;;;;;19.64;32.46;102723.97;7312899;19;131350;-70
2022/01/29 02:44:18;;;;;;;5.18;3.17;;;;;;;19.63;32.44;102716.69;7313094;19;131694;-69
2022/01/29 02:49:18;;;;;;;5.80;3.38;;;;;;;19.61;32.48;102718.81;7312401;19;129171;-70
2022/01/29 02:51:50;;;;;;;5.25;3.28;;;;;;;19.60;32.74;102711.56;7316677;19;132321;-70
2022/01/29 02:54:18;;;;;;;6.53;3.58;;;;;;;19.59;32.58;102709.84;7313330;19;136388;-69
2022/01/29 02:56:45;;;;;;;6.00;3.10;;;;;;;19.59;32.88;102709.84;7315073;19;129398;-69
2022/01/29 02:59:12;;;;;;;5.60;2.63;;;;;;;19.57;32.75;102703.63;7312187;19;128985;-70
2022/01/29 03:01:40;;;;;;;6.97;3.28;;;;;;;19.57;32.70;102706.41;7312551;19;132283;-70
2022/01/29 03:04:07;;;;;;;4.88;3.30;;;;;;;19.56;32.77;102704.72;7313048;19;131282;-71
2022/01/29 03:06:34;;;;;;;5.53;3.30;;;;;;;19.56;32.75;102704.72;7312815;19;129324;-70
2022/01/29 03:09:01;;;;;;;4.97;2.97;;;;;;;19.54;32.56;102706.84;7314563;19;129222;-69
2022/01/29 03:11:28;;;;;;;3.92;2.97;;;;;;;19.53;32.83;102699.59;7311697;19;130997;-70
2022/01/29 03:13:55;;;;;;;4.72;3.22;;;;;;;19.53;32.59;102696.81;7314670;19;130988;-70
2022/01/29 03:16:22;;;;;;;8.48;2.97;;;;;;;19.52;32.49;102695.09;7307710;19;129779;-70
2022/01/29 03:18:48;;;;;;;8.05;3.58;;;;;;;19.51;32.74;102697.00;7314313;19;129454;-70
2022/01/29 03:21:15;;;;;;;7.30;2.90;;;;;;;19.50;32.74;102694.44;7310351;19;131901;-71
2022/01/29 03:23:42;;;;;;;4.07;2.72;;;;;;;19.50;32.82;102683.34;7310940;19;131066;-69
2022/01/29 03:26:08;;;;;;;3.80;2.88;;;;;;;19.48;32.79;102682.69;7312608;19;128861;-69
2022/01/29 03:28:35;;;;;;;5.50;3.10;;;;;;;19.47;32.76;102689.31;7309659;19;130222;-70
2022/01/29 03:31:03;;;;;;;5.32;2.85;;;;;;;19.46;32.96;102680.13;7312929;19;132166;-70
2022/01/29 03:33:29;;;;;;;6.40;2.97;;;;;;;19.46;33.01;102679.25;7309725;19;131200;-68
2022/01/29 03:35:56;;;;;;;5.90;3.00;;;;;;;19.45;32.50;102666.44;7312109;19;129014;-69
2022/01/29 03:38:24;;;;;;;4.97;3.00;;;;;;;19.44;32.80;102673.09;7310970;19;129798;-70
2022/01/29 03:40:51;;;;;;;5.40;2.85;;;;;;;19.43;32.99;102671.38;7312364;19;131934;-70
2022/01/29 03:43:30;;;;;;;5.10;3.00;;;;;;;19.42;32.74;102676.06;7313785;19;130984;-70
2022/01/29 03:45:57;;;;;;;5.82;3.08;;;;;;;19.43;32.69;102671.38;7309625;19;128814;-70
2022/01/29 03:48:23;;;;;;;3.95;3.17;;;;;;;19.43;32.79;102671.38;7313199;19;130041;-71
2022/01/29 03:50:50;;;;;;;5.85;3.00;;;;;;;19.41;32.91;102657.69;7309190;19;132007;-70
2022/01/29 03:53:17;;;;;;;6.22;3.00;;;;;;;19.41;32.54;102662.41;7313430;19;132314;-70
2022/01/29 03:55:44;;;;;;;4.78;3.15;;;;;;;19.38;32.76;102667.31;7308627;19;129054;-70
2022/01/29 03:58:10;;;;;;;3.58;2.63;;;;;;;19.37;33.01;102657.25;7312887;19;128910;-70
2022/01/29 04:00:37;;;;;;;6.32;3.03;;;;;;;19.37;32.66;102654.47;7309873;19;131238;-71
2022/01/29 04:03:04;;;;;;;3.55;2.70;;;;;;;19.37;33.01;102657.25;7311530;19;130911;-69
2022/01/29 04:05:31;;;;;;;4.45;2.97;;;;;;;19.36;32.77;102655.53;7309868;19;129093;-70
2022/01/29 04:07:58;;;;;;;3.75;2.92;;;;;;;19.36;32.99;102651.94;7311877;19;129609;-69
2022/01/29 04:10:27;;;;;;;5.35;3.00;;;;;;;19.34;32.62;102642.94;7312749;19;131306;-70
2022/01/29 04:12:54;;;;;;;4.10;2.80;;;;;;;19.35;33.09;102645.50;7310116;19;131261;-70
2022/01/29 04:15:22;;;;;;;5.43;2.47;;;;;;;19.34;32.74;102646.56;7313070;19;128859;-70
2022/01/29 04:17:49;;;;;;;4.22;2.67;;;;;;;19.33;33.07;102638.47;7308686;19;129249;-70
2022/01/29 04:20:16;;;;;;;6.35;2.90;;;;;;;19.31;32.82;102638.69;7312229;19;132139;-70
2022/01/29 04:22:43;;;;;;;5.18;3.05;;;;;;;19.31;33.05;102637.81;7309826;19;131162;-70
2022/01/29 04:25:10;;;;;;;5.63;2.97;;;;;;;19.30;33.08;102642.53;7310262;19;130010;-69
2022/01/29 04:27:41;;;;;;;3.85;2.53;;;;;;;19.29;32.98;102632.47;7312998;19;128984;-70
2022/01/29 04:30:32;;;;;;;3.55;2.63;;;;;;;19.28;33.01;102628.00;7316830;19;131134;-70
2022/01/29 04:33:02;;;;;;;2.63;2.30;;;;;;;19.28;32.63;102629.91;7318790;19;131261;-70
2022/01/29 04:35:29;;;;;;;4.57;2.75;;;;;;;19.29;32.63;102626.06;7315742;19;130360;-69
2022/01/29 04:37:57;;;;;;;4.22;3.15;;;;;;;19.27;32.86;102631.84;7316279;19;129042;-70
2022/01/29 04:40:23;;;;;;;4.30;2.58;;;;;;;19.26;32.78;102638.44;7316707;19;131276;-71
2022/01/29 04:42:50;;;;;;;4.43;2.83;;;;;;;19.24;32.94;102632.25;7316754;19;132328;-69
2022/01/29 04:45:17;;;;;;;2.75;2.33;;;;;;;19.24;32.89;102629.47;7317624;19;128969;-70
2022/01/29 04:47:44;;;;;;;4.15;2.50;;;;;;;19.24;32.72;102623.91;7315089;19;130876;-70
2022/01/29 04:50:11;;;;;;;3.47;2.40;;;;;;;19.24;32.59;102617.53;7318554;19;131269;-70
2022/01/29 04:52:38;;;;;;;4.95;2.70;;;;;;;19.23;32.71;102627.75;7314179;19;131073;-70
2022/01/29 04:55:05;;;;;;;4.32;2.60;;;;;;;19.22;32.97;102621.38;7317046;19;128940;-69
2022/01/29 04:57:32;;;;;;;2.97;2.30;;;;;;;19.22;32.92;102621.38;7316053;19;129097;-70
2022/01/29 04:59:59;;;;;;;4.53;2.63;;;;;;;19.21;32.78;102614.09;7316450;19;131177;-70
2022/01/29 05:02:25;;;;;;;2.75;2.22;;;;;;;19.21;33.09;102607.69;7317892;19;132186;-71
2022/01/29 05:04:52;;;;;;;2.75;2.40;;;;;;;19.21;32.89;102610.47;7315040;19;128989;-70
2022/01/29 05:07:19;;;;;;;4.03;2.45;;;;;;;19.19;32.72;102602.31;7317666;19;128970;-71
2022/01/29 05:09:46;;;;;;;2.88;2.10;;;;;;;19.19;32.83;102604.25;7315453;19;137198;-70
2022/01/29 05:12:19;;;;;;;5.22;2.45;;;;;;;19.18;32.70;102585.91;7317959;19;131133;-70
2022/01/29 05:15:06;;;;;;;3.17;2.50;;;;;;;19.18;32.72;102595.06;7313873;19;131609;-70
2022/01/29 05:28:34;;;;;;;4.00;2.22;;;;;;;19.13;33.18;102589.31;7315279;19;129136;-70
2022/01/29 05:31:00;;;;;;;3.88;2.50;;;;;;;19.13;33.17;102585.66;7314789;19;131276;-70
2022/01/29 05:33:27;;;;;;;2.35;1.90;;;;;;;19.12;32.88;102581.16;7314813;19;132102;-70
2022/01/29 05:35:54;;;;;;;2.42;1.85;;;;;;;19.13;33.18;102588.44;7315297;19;129198;-70
2022/01/29 05:38:21;;;;;;;2.17;1.98;;;;;;;19.12;33.16;102583.94;7316995;19;130769;-70
2022/01/29 05:40:48;;;;;;;3.15;1.90;;;;;;;19.12;32.69;102581.16;7315030;19;131058;-70
2022/01/29 05:43:14;;;;;;;2.53;2.00;;;;;;;19.11;33.19;102582.22;7316819;19;131471;-70
2022/01/29 05:45:41;;;;;;;2.22;1.95;;;;;;;19.10;32.83;102588.84;7313787;19;132102;-70
2022/01/29 05:48:08;;;;;;;3.03;2.00;;;;;;;19.10;33.11;102589.72;7317017;19;129649;-70
2022/01/29 05:50:34;;;;;;;2.17;1.98;;;;;;;19.09;32.91;102588.00;7313849;19;131144;-70
2022/01/29 05:53:01;;;;;;;3.30;2.35;;;;;;;19.10;32.76;102586.06;7315525;19;131824;-69
2022/01/29 05:55:28;;;;;;;2.00;1.70;;;;;;;19.10;32.93;102586.06;7313743;19;128989;-70
2022/01/29 05:57:55;;;;;;;3.17;1.90;;;;;;;19.09;33.14;102579.69;7316456;19;131898;-70
2022/01/29 06:00:22;;;;;;;3.00;2.00;;;;;;;19.08;32.91;102569.66;7317027;19;131260;-70
2022/01/29 06:03:06;;;;;;;2.58;1.80;;;;;;;19.09;33.10;102563.03;7313654;19;131061;-70
2022/01/29 06:05:34;;;;;;;2.35;1.90;;;;;;;19.07;32.97;102563.25;7316767;19;129629;-70
2022/01/29 06:08:01;;;;;;;2.47;2.10;;;;;;;19.05;33.08;102559.84;7312244;19;129085;-70
2022/01/29 06:10:28;;;;;;;4.47;1.90;;;;;;;19.06;33.35;102567.09;7315782;19;131302;-69
2022/01/29 06:13:02;;;;;;;3.00;1.83;;;;;;;19.06;32.85;102560.66;7312194;19;131410;-70
2022/01/29 06:15:32;;;;;;;2.22;1.75;;;;;;;19.05;33.20;102570.94;7314281;19;129110;-70
2022/01/29 06:17:59;;;;;;;1.92;1.58;;;;;;;19.02;32.96;102571.34;7313712;19;129814;-70
2022/01/29 06:20:26;;;;;;;2.47;1.90;;;;;;;19.02;32.92;102576.88;7312931;19;131112;-70
2022/01/29 06:22:53;;;;;;;2.30;1.60;;;;;;;19.03;32.83;102572.19;7316446;19;131145;-70
2022/01/29 06:25:20;;;;;;;2.08;1.67;;;;;;;19.01;33.22;102566.00;7311265;19;130396;-70
2022/01/29 06:27:47;;;;;;;1.83;1.50;;;;;;;19.01;33.02;102555.75;7316516;19;129011;-70
2022/01/29 06:30:14;;;;;;;2.08;1.65;;;;;;;19.01;32.78;102563.25;7310635;19;131388;-70
2022/01/29 06:32:42;;;;;;;2.00;1.60;;;;;;;19.01;33.07;102557.69;7315709;19;131213;-70
2022/01/29 06:35:10;;;;;;;1.90;1.60;;;;;;;19.01;32.82;102557.69;7313386;19;129314;-70
2022/01/29 06:37:36;;;;;;;2.70;1.80;;;;;;;19.00;32.87;102556.81;7314701;19;129571;-70
2022/01/29 06:40:04;;;;;;;2.58;1.85;;;;;;;18.99;33.19;102549.56;7314414;19;131112;-70
2022/01/29 06:42:31;;;;;;;2.90;1.60;;;;;;;18.99;33.24;102560.66;7313678;19;131139;-70
2022/01/29 06:44:58;;;;;;;2.05;1.70;;;;;;;18.98;33.20;102547.84;7315672;19;129519;-70
2022/01/29 06:47:24;;;;;;;1.70;1.58;;;;;;;18.98;32.84;102545.06;7311822;19;129207;-70
2022/01/29 06:49:51;;;;;;;2.03;1.67;;;;;;;18.98;33.20;102553.41;7313605;19;131172;-70
2022/01/29 06:52:18;;;;;;;2.13;1.70;;;;;;;18.97;33.30;102546.13;7310768;19;130995;-69
2022/01/29 06:54:45;;;;;;;2.40;1.45;;;;;;;18.98;33.18;102547.84;7314704;19;128650;-70
2022/01/29 06:57:11;;;;;;;2.13;1.60;;;;;;;18.97;32.83;102551.69;7313581;19;129078;-70
2022/01/29 06:59:38;;;;;;;3.22;1.52;;;;;;;18.96;32.84;102538.03;7314567;19;131073;-69
2022/01/29 07:02:09;;;;;;;1.98;1.70;;;;;;;18.95;33.00;102539.97;7315351;19;131154;-71
2022/01/29 07:04:35;;;;;;;1.52;1.42;;;;;;;18.95;33.17;102539.97;7311853;19;128902;-70
2022/01/29 07:07:02;;;;;;;1.70;1.60;;;;;;;18.96;32.83;102533.31;7311844;19;128882;-70
2022/01/29 07:09:29;;;;;;;2.08;1.60;;;;;;;18.97;33.23;102535.03;7311355;19;132084;-71
2022/01/29 07:12:07;;;;;;;1.40;1.13;;;;;;;19.03;33.21;102537.00;7312112;19;131226;-70
2022/01/29 07:14:37;;;;;;;1.45;1.20;;;;;;;19.11;33.10;102529.53;7309967;19;131106;-69
2022/01/29 07:17:08;;;;;;;1.33;1.13;;;;;;;19.23;32.56;102522.31;7314760;19;128853;-70
2022/01/29 07:19:35;;;;;;;2.20;1.40;;;;;;;19.41;32.58;102526.41;7311190;19;133778;-70
2022/01/29 07:22:03;;;;;;;1.65;1.17;;;;;;;19.61;32.56;102527.25;7311480;19;131040;-70
2022/01/29 07:24:32;;;;;;;1.95;1.27;;;;;;;19.81;32.22;102530.00;7312418;19;129181;-70
2022/01/29 07:26:58;;;;;;;1.35;1.05;;;;;;;20.03;32.02;102534.50;7311554;19;128864;-70
2022/01/29 07:29:25;;;;;;;2.97;1.10;;;;;;;20.21;31.98;102539.38;7314459;19;130453;-69
2022/01/29 07:31:52;;;;;;;1.55;1.20;;;;;;;20.35;31.61;102529.94;7310161;19;130536;-69
2022/01/29 07:34:19;;;;;;;1.52;1.15;;;;;;;20.45;31.68;102529.44;7314788;19;130373;-69
2022/01/29 07:36:45;;;;;;;1.27;1.05;;;;;;;20.54;31.25;102521.72;7310690;19;134124;-68
2022/01/29 07:39:12;;;;;;;1.25;0.90;;;;;;;20.66;31.23;102519.97;7312442;19;132116;-68
2022/01/29 07:41:39;;;;;;;3.47;1.10;;;;;;;20.73;30.96;102518.00;7310196;19;131157;-68
2022/01/29 07:44:06;;;;;;;3.10;1.40;;;;;;;20.78;31.25;102528.50;7313431;19;128808;-67
2022/01/29 07:46:33;;;;;;;3.25;1.00;;;;;;;20.81;30.87;102525.25;7312274;19;129010;-67
2022/01/29 07:49:00;;;;;;;1.63;1.20;;;;;;;20.82;31.19;102529.75;7313264;19;130797;-67
2022/01/29 07:51:26;;;;;;;2.70;1.15;;;;;;;20.81;30.71;102524.41;7311626;19;130657;-68
2022/01/29 07:53:53;;;;;;;1.98;1.10;;;;;;;20.78;31.19;102525.72;7311065;19;129055;-67
2022/01/29 07:56:20;;;;;;;6.63;1.13;;;;;;;20.74;31.18;102525.25;7311651;19;130792;-68
2022/01/29 07:58:48;;;;;;;3.70;1.10;;;;;;;20.70;30.91;102521.22;7307348;19;131013;-67
2022/01/29 08:01:15;;;;;;;5.95;1.15;;;;;;;20.65;31.00;102512.69;7310940;19;132035;-69
2022/01/29 08:03:46;;;;;;;3.45;0.98;;;;;;;20.60;31.07;102512.50;7307174;19;128900;-68
2022/01/29 08:06:13;;;;;;;3.42;1.10;;;;;;;20.54;31.37;102513.38;7313280;19;130064;-68
2022/01/29 08:08:40;;;;;;;6.63;1.30;;;;;;;20.48;31.26;102504.00;7314321;19;130564;-68
2022/01/29 08:11:08;;;;;;;3.90;1.05;;;;;;;20.43;31.50;102512.16;7311502;19;131188;-68
2022/01/29 08:13:35;;;;;;;4.80;1.30;;;;;;;20.38;31.43;102514.75;7314039;19;129030;-68
2022/01/29 08:16:03;;;;;;;5.18;1.13;;;;;;;20.33;31.52;102497.84;7311290;19;129132;-68
2022/01/29 08:18:29;;;;;;;6.63;1.48;;;;;;;20.26;31.96;102492.31;7314310;19;130550;-68
2022/01/29 08:20:57;;;;;;;9.48;1.33;;;;;;;20.20;32.07;102494.06;7307975;19;131135;-68
2022/01/29 08:23:24;;;;;;;2.17;0.88;;;;;;;20.15;31.90;102502.22;7314067;19;129015;-68
2022/01/29 08:25:51;;;;;;;2.83;0.98;;;;;;;20.12;31.84;102500.69;7313093;19;129145;-68
2022/01/29 08:28:23;;;;;;;8.82;1.10;;;;;;;20.06;32.04;102503.53;7313112;19;131329;-68
2022/01/29 08:30:50;;;;;;;3.90;1.40;;;;;;;20.02;32.37;102482.78;7313787;19;130609;-68
2022/01/29 08:33:18;;;;;;;7.53;1.23;;;;;;;19.97;32.02;102495.38;7311433;19;128757;-68
2022/01/29 08:35:46;;;;;;;3.38;1.38;;;;;;;19.94;32.26;102489.41;7312899;19;129112;-68
2022/01/29 08:38:16;;;;;;;6.68;1.27;;;;;;;19.89;32.47;102492.84;7310923;19;132101;-68
2022/01/29 08:40:43;;;;;;;4.50;1.00;;;;;;;19.86;32.45;102490.47;7314615;19;130909;-68
2022/01/29 08:43:09;;;;;;;3.30;1.00;;;;;;;19.82;32.50;102490.06;7310766;19;128974;-68
2022/01/29 08:45:36;;;;;;;3.28;0.95;;;;;;;19.82;32.38;102494.75;7313514;19;128826;-68
2022/01/29 08:48:03;;;;;;;3.22;1.60;;;;;;;19.83;32.49;102488.13;7310417;19;131696;-68
2022/01/29 08:50:30;;;;;;;2.80;1.17;;;;;;;19.88;32.73;102482.78;7311866;19;130471;-68
2022/01/29 08:52:56;;;;;;;2.65;0.90;;;;;;;19.97;32.60;102492.59;7311068;19;129294;-68
2022/01/29 08:55:23;;;;;;;2.10;0.93;;;;;;;20.10;32.29;102482.56;7310179;19;128818;-68
2022/01/29 08:57:50;;;;;;;5.13;1.00;;;;;;;20.21;32.24;102476.31;7313153;19;132056;-68
2022/01/29 09:00:17;;;;;;;2.72;0.82;;;;;;;20.35;32.11;102471.56;7309303;19;131746;-68
2022/01/29 09:02:44;;;;;;;4.95;0.85;;;;;;;20.48;31.61;102469.81;7313910;19;129424;-68
2022/01/29 09:05:12;;;;;;;5.03;0.88;;;;;;;20.59;31.50;102475.50;7310052;19;129052;-68
2022/01/29 09:07:39;;;;;;;5.72;1.00;;;;;;;20.69;31.72;102474.16;7310040;19;130642;-68
2022/01/29 09:10:06;;;;;;;2.83;0.80;;;;;;;20.79;31.23;102468.16;7311327;19;131520;-68
2022/01/29 09:12:33;;;;;;;1.83;0.77;;;;;;;20.86;31.44;102472.59;7311188;19;131201;-68
2022/01/29 09:14:59;;;;;;;2.42;0.82;;;;;;;20.96;30.95;102468.47;7318909;19;128988;-68
2022/01/29 09:17:26;;;;;;;3.35;1.08;;;;;;;21.03;30.99;102477.63;7316435;19;131858;-68
2022/01/29 09:19:54;;;;;;;2.25;1.02;;;;;;;21.11;31.09;102482.06;7320146;19;130545;-68
2022/01/29 09:22:21;;;;;;;2.47;0.75;;;;;;;21.17;30.90;102475.59;7316505;19;128844;-68
2022/01/29 09:24:47;;;;;;;2.58;1.02;;;;;;;21.21;30.75;102477.69;7319077;19;130126;-68
2022/01/29 09:27:14;;;;;;;1.85;0.63;;;;;;;21.28;30.47;102476.81;7316096;19;130572;-68
2022/01/29 09:29:41;;;;;;;3.80;0.70;;;;;;;21.31;30.95;102481.88;7317788;19;131476;-68
2022/01/29 09:32:08;;;;;;;2.97;0.70;;;;;;;21.36;30.86;102479.28;7316689;19;129973;-69
2022/01/29 09:34:34;;;;;;;1.85;0.80;;;;;;;21.41;30.57;102486.97;7317853;19;129164;-68
2022/01/29 09:37:01;;;;;;;1.83;0.77;;;;;;;21.46;30.60;102476.00;7318614;19;130611;-68
2022/01/29 09:39:28;;;;;;;2.78;0.82;;;;;;;21.50;30.26;102480.91;7316654;19;130526;-68
2022/01/29 09:41:56;;;;;;;3.38;0.80;;;;;;;21.54;30.31;102469.31;7319493;19;128860;-68
2022/01/29 09:44:22;;;;;;;1.60;0.75;;;;;;;21.59;30.62;102466.69;7312869;19;134976;-68
2022/01/29 09:46:52;;;;;;;2.42;0.90;;;;;;;21.63;30.35;102465.16;7316736;19;131160;-69
2022/01/29 09:49:19;;;;;;;1.77;0.57;;;;;;;21.65;30.39;102458.25;7314219;19;131951;-69
2022/01/29 09:51:46;;;;;;;3.03;0.98;;;;;;;21.68;30.38;102456.94;7316727;19;128943;-68
2022/01/29 09:54:13;;;;;;;1.67;0.60;;;;;;;21.70;30.32;102456.75;7313532;19;129781;-69
2022/01/29 09:56:40;;;;;;;3.13;0.80;;;;;;;21.71;30.16;102469.59;7314772;19;130554;-69
2022/01/29 09:59:06;;;;;;;2.45;0.77;;;;;;;21.72;30.64;102477.69;7311372;19;131559;-69
2022/01/29 10:01:33;;;;;;;7.32;1.20;;;;;;;21.72;30.36;102483.28;7312816;19;129055;-69
2022/01/29 10:04:05;;;;;;;6.45;0.70;;;;;;;21.72;30.81;102482.44;7318470;19;129067;-69
2022/01/29 10:06:32;;;;;;;5.18;0.98;;;;;;;21.73;30.82;102487.75;7313818;19;130652;-69
2022/01/29 10:09:01;;;;;;;6.07;1.20;;;;;;;21.74;30.66;102481.13;7317279;19;131308;-69
2022/01/29 10:11:28;;;;;;;5.50;0.70;;;;;;;21.74;30.74;102472.75;7314512;19;129532;-69
2022/01/29 10:14:03;;;;;;;5.03;1.25;;;;;;;21.76;30.69;102472.50;7316889;19;128771;-68
2022/01/29 10:16:32;;;;;;;6.78;0.85;;;;;;;21.75;30.74;102477.25;7315146;19;131534;-69
2022/01/29 10:19:12;;;;;;;6.88;1.00;;;;;;;21.75;30.98;102465.25;7314986;19;131802;-69
2022/01/29 10:21:46;;;;;;;8.48;0.88;;;;;;;21.73;31.24;102471.06;7316866;19;128848;-68
2022/01/29 10:24:18;;;;;;;5.78;0.93;;;;;;;21.73;31.29;102465.47;7311797;19;129041;-69
2022/01/29 10:26:48;;;;;;;6.85;1.17;;;;;;;21.74;31.24;102463.53;7316653;19;130752;-69
2022/01/29 10:29:20;;;;;;;11.57;1.27;;;;;;;21.74;31.15;102458.81;7314150;19;130523;-69
2022/01/29 10:31:49;;;;;;;8.32;0.95;;;;;;;21.75;31.10;102454.97;7315827;19;129113;-69
2022/01/29 10:34:27;;;;;;;9.05;1.10;;;;;;;21.79;31.29;102450.63;7313628;19;129078;-68
2022/01/29 10:37:18;;;;;;;9.77;1.20;;;;;;;21.80;31.52;102457.88;7313660;19;131357;-68
2022/01/29 10:39:59;;;;;;;12.55;1.05;;;;;;;21.81;31.60;102439.25;7313928;19;130868;-69
2022/01/29 10:42:35;;;;;;;4.53;1.00;;;;;;;21.80;31.57;102423.63;7313506;19;129804;-69
2022/01/29 10:45:05;;;;;;;3.92;1.05;;;;;;;21.77;31.65;102416.59;7316106;19;128881;-68
2022/01/29 10:47:54;;;;;;;7.15;1.10;;;;;;;21.78;31.79;102417.44;7312538;19;131400;-69
2022/01/29 10:50:21;;;;;;;5.00;0.80;;;;;;;21.76;32.06;102420.47;7307970;19;130209;-70
2022/01/29 10:52:48;;;;;;;6.57;0.98;;;;;;;21.76;32.13;102406.53;7314709;19;128786;-71
2022/01/29 10:55:15;;;;;;;6.03;0.93;;;;;;;21.76;32.38;102398.16;7313722;19;129610;-72
2022/01/29 10:57:44;;;;;;;5.80;1.02;;;;;;;21.77;32.54;102407.38;7317005;19;131513;-72
2022/01/29 11:00:22;;;;;;;3.15;0.70;;;;;;;21.76;32.03;102414.88;7312804;19;130975;-71
2022/01/29 11:02:51;;;;;;;5.10;0.98;;;;;;;21.74;32.37;102407.81;7314638;19;129160;-70
2022/01/29 11:05:18;;;;;;;4.35;0.80;;;;;;;21.73;32.47;102404.19;7311422;19;129318;-71
2022/01/29 11:07:52;;;;;;;3.72;0.98;;;;;;;21.72;32.75;102405.28;7314011;19;130481;-71
2022/01/29 11:10:19;;;;;;;5.75;0.90;;;;;;;21.71;32.47;102406.34;7313902;19;130635;-71
2022/01/29 11:12:48;;;;;;;4.28;1.10;;;;;;;21.70;32.49;102418.59;7311888;19;128915;-70
2022/01/29 11:15:16;;;;;;;13.02;0.90;;;;;;;21.69;32.79;102405.72;7313126;19;129211;-72
2022/01/29 11:17:44;;;;;;;6.05;0.88;;;;;;;21.66;32.74;102417.34;7312836;19;131184;-70
2022/01/29 11:20:11;;;;;;;9.30;1.10;;;;;;;21.67;32.61;102407.91;7305305;19;131105;-68
2022/01/29 11:28:19;;;;;;;9.45;1.20;;;;;;;21.65;32.74;102393.38;7348419;19;128895;-72
2022/01/29 11:31:11;;;;;;;9.75;1.50;;;;;;;21.62;32.94;102383.53;7332434;19;129871;-71
2022/01/29 11:34:00;;;;;;;11.00;1.00;;;;;;;21.61;33.13;102386.56;7318521;19;128921;-71
2022/01/29 11:36:48;;;;;;;7.60;1.55;;;;;;;21.60;32.86;102384.84;7314747;19;129560;-71
2022/01/29 11:39:21;;;;;;;6.25;0.82;;;;;;;21.59;32.88;102372.00;7321102;19;131271;-72
2022/01/29 11:42:13;;;;;;;14.60;1.10;;;;;;;21.58;32.89;102359.16;7322650;19;131723;-72